sensor_id;sensor_type;location;lat;lon;timestamp;P1;durP1;ratioP1;P2;durP2;ratioP2
77524;SDS011;66638;50.050;21.124;2023-02-07T00:00:43;78.80;;;38.00;;
77524;SDS011;66638;50.050;21.124;2023-02-07T00:03:28;78.90;;;38.40;;
77524;SDS011;66638;50.050;21.124;2023-02-07T00:06:17;77.90;;;37.90;;
77524;SDS011;66638;50.050;21.124;2023-02-07T00:09:07;80.00;;;36.10;;
77524;SDS011;66638;50.050;21.124;2023-02-07T00:11:54;73.70;;;35.20;;
77524;SDS011;66638;50.050;21.124;2023-02-07T00:14:41;85.10;;;38.50;;
77524;SDS011;66638;50.050;21.124;2023-02-07T00:17:28;76.70;;;35.40;;
77524;SDS011;66638;50.050;21.124;2023-02-07T00:20:14;65.30;;;34.30;;
77524;SDS011;66638;50.050;21.124;2023-02-07T00:23:01;84.30;;;37.10;;
77524;SDS011;66638;50.050;21.124;2023-02-07T00:25:47;81.60;;;36.20;;
77524;SDS011;66638;50.050;21.124;2023-02-07T00:28:33;77.40;;;38.20;;
77524;SDS011;66638;50.050;21.124;2023-02-07T00:31:25;83.80;;;39.80;;
77524;SDS011;66638;50.050;21.124;2023-02-07T00:34:14;85.40;;;42.80;;
77524;SDS011;66638;50.050;21.124;2023-02-07T00:37:00;88.80;;;40.10;;
77524;SDS011;66638;50.050;21.124;2023-02-07T00:39:46;82.40;;;40.10;;
77524;SDS011;66638;50.050;21.124;2023-02-07T00:42:31;82.90;;;38.80;;
77524;SDS011;66638;50.050;21.124;2023-02-07T00:45:17;76.40;;;34.80;;
77524;SDS011;66638;50.050;21.124;2023-02-07T00:48:05;80.10;;;38.70;;
77524;SDS011;66638;50.050;21.124;2023-02-07T00:50:52;88.30;;;38.10;;
77524;SDS011;66638;50.050;21.124;2023-02-07T00:53:38;77.70;;;36.20;;
77524;SDS011;66638;50.050;21.124;2023-02-07T00:56:26;62.20;;;31.50;;
77524;SDS011;66638;50.050;21.124;2023-02-07T00:59:13;73.20;;;36.30;;
77524;SDS011;66638;50.050;21.124;2023-02-07T01:02:00;77.00;;;36.20;;
77524;SDS011;66638;50.050;21.124;2023-02-07T01:04:47;77.50;;;37.00;;
77524;SDS011;66638;50.050;21.124;2023-02-07T01:07:33;69.70;;;35.40;;
77524;SDS011;66638;50.050;21.124;2023-02-07T01:10:19;75.10;;;33.50;;
77524;SDS011;66638;50.050;21.124;2023-02-07T01:13:07;61.70;;;31.90;;
77524;SDS011;66638;50.050;21.124;2023-02-07T01:15:53;70.70;;;32.80;;
77524;SDS011;66638;50.050;21.124;2023-02-07T01:18:39;79.60;;;36.10;;
77524;SDS011;66638;50.050;21.124;2023-02-07T01:21:25;77.70;;;35.10;;
77524;SDS011;66638;50.050;21.124;2023-02-07T01:24:13;76.50;;;35.70;;
77524;SDS011;66638;50.050;21.124;2023-02-07T01:26:59;76.40;;;35.70;;
77524;SDS011;66638;50.050;21.124;2023-02-07T01:29:47;69.10;;;30.50;;
77524;SDS011;66638;50.050;21.124;2023-02-07T01:32:33;66.30;;;30.70;;
77524;SDS011;66638;50.050;21.124;2023-02-07T01:35:21;66.00;;;27.60;;
77524;SDS011;66638;50.050;21.124;2023-02-07T01:38:08;71.70;;;32.50;;
77524;SDS011;66638;50.050;21.124;2023-02-07T01:40:53;63.10;;;26.00;;
77524;SDS011;66638;50.050;21.124;2023-02-07T01:44:03;68.50;;;28.60;;
77524;SDS011;66638;50.050;21.124;2023-02-07T01:46:50;79.20;;;34.70;;
77524;SDS011;66638;50.050;21.124;2023-02-07T01:49:37;58.30;;;27.50;;
77524;SDS011;66638;50.050;21.124;2023-02-07T01:52:37;67.50;;;29.30;;
77524;SDS011;66638;50.050;21.124;2023-02-07T01:55:28;55.20;;;25.70;;
77524;SDS011;66638;50.050;21.124;2023-02-07T01:58:17;51.80;;;25.40;;
77524;SDS011;66638;50.050;21.124;2023-02-07T02:01:08;51.30;;;24.50;;
77524;SDS011;66638;50.050;21.124;2023-02-07T02:03:55;44.50;;;21.20;;
77524;SDS011;66638;50.050;21.124;2023-02-07T02:06:43;51.70;;;26.50;;
77524;SDS011;66638;50.050;21.124;2023-02-07T02:09:31;45.10;;;20.60;;
77524;SDS011;66638;50.050;21.124;2023-02-07T02:15:29;56.30;;;24.50;;
77524;SDS011;66638;50.050;21.124;2023-02-07T02:22:10;52.30;;;25.20;;
77524;SDS011;66638;50.050;21.124;2023-02-07T02:34:06;55.80;;;24.00;;
77524;SDS011;66638;50.050;21.124;2023-02-07T02:37:01;43.10;;;19.30;;
77524;SDS011;66638;50.050;21.124;2023-02-07T02:40:29;56.80;;;27.20;;
77524;SDS011;66638;50.050;21.124;2023-02-07T02:43:24;75.90;;;36.70;;
77524;SDS011;66638;50.050;21.124;2023-02-07T02:46:20;59.90;;;26.20;;
77524;SDS011;66638;50.050;21.124;2023-02-07T02:49:12;51.30;;;24.90;;
77524;SDS011;66638;50.050;21.124;2023-02-07T02:52:01;55.90;;;25.80;;
77524;SDS011;66638;50.050;21.124;2023-02-07T02:54:47;49.80;;;23.30;;
77524;SDS011;66638;50.050;21.124;2023-02-07T03:00:47;54.00;;;24.40;;
77524;SDS011;66638;50.050;21.124;2023-02-07T03:04:07;48.80;;;24.30;;
77524;SDS011;66638;50.050;21.124;2023-02-07T03:09:56;41.50;;;20.50;;
77524;SDS011;66638;50.050;21.124;2023-02-07T03:12:56;50.40;;;26.40;;
77524;SDS011;66638;50.050;21.124;2023-02-07T03:18:47;54.80;;;23.50;;
77524;SDS011;66638;50.050;21.124;2023-02-07T03:27:30;45.80;;;18.40;;
77524;SDS011;66638;50.050;21.124;2023-02-07T03:30:18;49.30;;;21.10;;
77524;SDS011;66638;50.050;21.124;2023-02-07T03:33:07;49.40;;;21.80;;
77524;SDS011;66638;50.050;21.124;2023-02-07T03:35:56;43.20;;;18.60;;
77524;SDS011;66638;50.050;21.124;2023-02-07T03:38:49;56.10;;;26.50;;
77524;SDS011;66638;50.050;21.124;2023-02-07T03:44:45;47.90;;;23.80;;
77524;SDS011;66638;50.050;21.124;2023-02-07T03:47:31;53.60;;;26.60;;
77524;SDS011;66638;50.050;21.124;2023-02-07T03:50:19;47.20;;;21.30;;
77524;SDS011;66638;50.050;21.124;2023-02-07T03:53:05;49.60;;;21.00;;
77524;SDS011;66638;50.050;21.124;2023-02-07T03:55:51;44.60;;;23.60;;
77524;SDS011;66638;50.050;21.124;2023-02-07T03:58:37;38.80;;;21.00;;
77524;SDS011;66638;50.050;21.124;2023-02-07T04:01:23;40.70;;;21.90;;
77524;SDS011;66638;50.050;21.124;2023-02-07T04:04:10;47.60;;;19.40;;
77524;SDS011;66638;50.050;21.124;2023-02-07T04:06:56;49.30;;;21.90;;
77524;SDS011;66638;50.050;21.124;2023-02-07T04:09:43;44.30;;;22.00;;
77524;SDS011;66638;50.050;21.124;2023-02-07T04:12:29;53.40;;;24.50;;
77524;SDS011;66638;50.050;21.124;2023-02-07T04:15:19;60.40;;;23.70;;
77524;SDS011;66638;50.050;21.124;2023-02-07T04:18:05;58.90;;;26.80;;
77524;SDS011;66638;50.050;21.124;2023-02-07T04:20:50;53.00;;;23.60;;
77524;SDS011;66638;50.050;21.124;2023-02-07T04:23:37;45.10;;;20.80;;
77524;SDS011;66638;50.050;21.124;2023-02-07T04:26:23;37.40;;;18.30;;
77524;SDS011;66638;50.050;21.124;2023-02-07T04:29:09;46.10;;;19.00;;
77524;SDS011;66638;50.050;21.124;2023-02-07T04:31:55;36.80;;;18.40;;
77524;SDS011;66638;50.050;21.124;2023-02-07T04:34:41;39.50;;;19.30;;
77524;SDS011;66638;50.050;21.124;2023-02-07T04:37:28;62.40;;;28.00;;
77524;SDS011;66638;50.050;21.124;2023-02-07T04:40:14;58.70;;;27.80;;
77524;SDS011;66638;50.050;21.124;2023-02-07T04:43:01;52.70;;;24.80;;
77524;SDS011;66638;50.050;21.124;2023-02-07T04:45:48;47.30;;;23.60;;
77524;SDS011;66638;50.050;21.124;2023-02-07T04:48:38;63.30;;;29.90;;
77524;SDS011;66638;50.050;21.124;2023-02-07T04:51:25;54.80;;;28.10;;
77524;SDS011;66638;50.050;21.124;2023-02-07T04:54:11;63.50;;;32.50;;
77524;SDS011;66638;50.050;21.124;2023-02-07T04:56:58;42.70;;;20.30;;
77524;SDS011;66638;50.050;21.124;2023-02-07T04:59:44;49.70;;;26.50;;
77524;SDS011;66638;50.050;21.124;2023-02-07T05:02:32;45.60;;;22.60;;
77524;SDS011;66638;50.050;21.124;2023-02-07T05:08:05;46.20;;;21.10;;
77524;SDS011;66638;50.050;21.124;2023-02-07T05:10:54;44.70;;;23.00;;
77524;SDS011;66638;50.050;21.124;2023-02-07T05:13:40;40.20;;;22.10;;
77524;SDS011;66638;50.050;21.124;2023-02-07T05:16:27;43.10;;;20.70;;
77524;SDS011;66638;50.050;21.124;2023-02-07T05:19:14;47.30;;;20.30;;
77524;SDS011;66638;50.050;21.124;2023-02-07T05:22:00;48.30;;;22.40;;
77524;SDS011;66638;50.050;21.124;2023-02-07T05:24:46;45.30;;;19.50;;
77524;SDS011;66638;50.050;21.124;2023-02-07T05:27:32;56.10;;;25.60;;
77524;SDS011;66638;50.050;21.124;2023-02-07T05:30:18;40.90;;;18.60;;
77524;SDS011;66638;50.050;21.124;2023-02-07T05:33:04;44.40;;;18.90;;
77524;SDS011;66638;50.050;21.124;2023-02-07T05:35:51;37.60;;;17.00;;
77524;SDS011;66638;50.050;21.124;2023-02-07T05:38:37;57.90;;;24.50;;
77524;SDS011;66638;50.050;21.124;2023-02-07T05:41:22;66.90;;;28.60;;
77524;SDS011;66638;50.050;21.124;2023-02-07T05:44:09;63.90;;;29.90;;
77524;SDS011;66638;50.050;21.124;2023-02-07T05:46:55;59.10;;;26.60;;
77524;SDS011;66638;50.050;21.124;2023-02-07T05:49:41;51.10;;;24.40;;
77524;SDS011;66638;50.050;21.124;2023-02-07T05:52:27;49.90;;;23.40;;
77524;SDS011;66638;50.050;21.124;2023-02-07T05:55:15;46.30;;;23.90;;
77524;SDS011;66638;50.050;21.124;2023-02-07T05:58:00;50.60;;;24.90;;
77524;SDS011;66638;50.050;21.124;2023-02-07T06:00:47;51.00;;;26.80;;
77524;SDS011;66638;50.050;21.124;2023-02-07T06:03:34;57.40;;;25.60;;
77524;SDS011;66638;50.050;21.124;2023-02-07T06:06:21;45.30;;;23.70;;
77524;SDS011;66638;50.050;21.124;2023-02-07T06:09:06;49.70;;;24.20;;
77524;SDS011;66638;50.050;21.124;2023-02-07T06:11:53;53.20;;;25.20;;
77524;SDS011;66638;50.050;21.124;2023-02-07T06:14:40;51.80;;;25.20;;
77524;SDS011;66638;50.050;21.124;2023-02-07T06:17:25;61.10;;;28.90;;
77524;SDS011;66638;50.050;21.124;2023-02-07T06:20:11;49.60;;;25.30;;
77524;SDS011;66638;50.050;21.124;2023-02-07T06:22:57;58.00;;;27.80;;
77524;SDS011;66638;50.050;21.124;2023-02-07T06:25:44;59.00;;;26.60;;
77524;SDS011;66638;50.050;21.124;2023-02-07T06:28:30;60.20;;;29.70;;
77524;SDS011;66638;50.050;21.124;2023-02-07T06:31:16;53.80;;;24.90;;
77524;SDS011;66638;50.050;21.124;2023-02-07T06:34:03;61.40;;;29.00;;
77524;SDS011;66638;50.050;21.124;2023-02-07T06:36:49;65.40;;;29.30;;
77524;SDS011;66638;50.050;21.124;2023-02-07T06:39:34;60.50;;;27.20;;
77524;SDS011;66638;50.050;21.124;2023-02-07T06:42:19;59.10;;;27.50;;
77524;SDS011;66638;50.050;21.124;2023-02-07T06:45:06;54.00;;;26.70;;
77524;SDS011;66638;50.050;21.124;2023-02-07T06:47:52;47.00;;;19.00;;
77524;SDS011;66638;50.050;21.124;2023-02-07T06:50:38;58.30;;;28.20;;
77524;SDS011;66638;50.050;21.124;2023-02-07T06:53:23;60.50;;;26.80;;
77524;SDS011;66638;50.050;21.124;2023-02-07T06:56:09;48.90;;;26.30;;
77524;SDS011;66638;50.050;21.124;2023-02-07T06:58:57;45.20;;;20.60;;
77524;SDS011;66638;50.050;21.124;2023-02-07T07:01:42;42.90;;;25.00;;
77524;SDS011;66638;50.050;21.124;2023-02-07T07:04:29;53.50;;;25.80;;
77524;SDS011;66638;50.050;21.124;2023-02-07T07:07:15;34.00;;;17.90;;
77524;SDS011;66638;50.050;21.124;2023-02-07T07:10:00;44.30;;;20.00;;
77524;SDS011;66638;50.050;21.124;2023-02-07T07:12:46;33.90;;;17.80;;
77524;SDS011;66638;50.050;21.124;2023-02-07T07:15:33;48.80;;;21.10;;
77524;SDS011;66638;50.050;21.124;2023-02-07T07:18:19;44.10;;;22.40;;
77524;SDS011;66638;50.050;21.124;2023-02-07T07:21:06;38.90;;;19.20;;
77524;SDS011;66638;50.050;21.124;2023-02-07T07:23:53;48.20;;;20.90;;
77524;SDS011;66638;50.050;21.124;2023-02-07T07:26:40;38.80;;;20.50;;
77524;SDS011;66638;50.050;21.124;2023-02-07T07:29:26;46.60;;;22.10;;
77524;SDS011;66638;50.050;21.124;2023-02-07T07:32:11;44.30;;;22.60;;
77524;SDS011;66638;50.050;21.124;2023-02-07T07:34:57;56.50;;;23.90;;
77524;SDS011;66638;50.050;21.124;2023-02-07T07:40:32;42.20;;;19.50;;
77524;SDS011;66638;50.050;21.124;2023-02-07T07:43:19;54.60;;;23.30;;
77524;SDS011;66638;50.050;21.124;2023-02-07T07:46:07;57.20;;;29.30;;
77524;SDS011;66638;50.050;21.124;2023-02-07T07:48:53;39.10;;;18.90;;
77524;SDS011;66638;50.050;21.124;2023-02-07T07:51:39;48.00;;;25.80;;
77524;SDS011;66638;50.050;21.124;2023-02-07T07:54:25;50.20;;;25.50;;
77524;SDS011;66638;50.050;21.124;2023-02-07T07:57:12;43.90;;;22.70;;
77524;SDS011;66638;50.050;21.124;2023-02-07T07:59:58;48.60;;;21.90;;
77524;SDS011;66638;50.050;21.124;2023-02-07T08:02:45;62.10;;;30.40;;
77524;SDS011;66638;50.050;21.124;2023-02-07T08:05:32;71.80;;;35.00;;
77524;SDS011;66638;50.050;21.124;2023-02-07T08:08:18;57.30;;;24.90;;
77524;SDS011;66638;50.050;21.124;2023-02-07T08:11:06;35.60;;;19.40;;
77524;SDS011;66638;50.050;21.124;2023-02-07T08:13:53;43.50;;;21.90;;
77524;SDS011;66638;50.050;21.124;2023-02-07T08:16:40;43.10;;;21.60;;
77524;SDS011;66638;50.050;21.124;2023-02-07T08:19:25;42.50;;;21.10;;
77524;SDS011;66638;50.050;21.124;2023-02-07T08:22:12;48.50;;;24.80;;
77524;SDS011;66638;50.050;21.124;2023-02-07T08:27:46;62.20;;;25.90;;
77524;SDS011;66638;50.050;21.124;2023-02-07T08:30:33;57.30;;;25.90;;
77524;SDS011;66638;50.050;21.124;2023-02-07T08:33:19;55.50;;;27.10;;
77524;SDS011;66638;50.050;21.124;2023-02-07T08:36:07;72.30;;;36.60;;
77524;SDS011;66638;50.050;21.124;2023-02-07T08:38:56;51.80;;;25.40;;
77524;SDS011;66638;50.050;21.124;2023-02-07T08:41:41;73.60;;;40.00;;
77524;SDS011;66638;50.050;21.124;2023-02-07T08:44:27;89.30;;;53.00;;
77524;SDS011;66638;50.050;21.124;2023-02-07T08:47:14;59.30;;;34.80;;
77524;SDS011;66638;50.050;21.124;2023-02-07T08:50:03;61.00;;;33.00;;
77524;SDS011;66638;50.050;21.124;2023-02-07T08:52:50;45.50;;;21.20;;
77524;SDS011;66638;50.050;21.124;2023-02-07T08:55:38;47.50;;;21.90;;
77524;SDS011;66638;50.050;21.124;2023-02-07T08:58:26;44.60;;;23.00;;
77524;SDS011;66638;50.050;21.124;2023-02-07T09:01:14;61.40;;;33.50;;
77524;SDS011;66638;50.050;21.124;2023-02-07T09:04:01;81.50;;;45.80;;
77524;SDS011;66638;50.050;21.124;2023-02-07T09:06:47;53.50;;;23.70;;
77524;SDS011;66638;50.050;21.124;2023-02-07T09:09:34;51.90;;;27.60;;
77524;SDS011;66638;50.050;21.124;2023-02-07T09:12:21;51.20;;;25.40;;
77524;SDS011;66638;50.050;21.124;2023-02-07T09:15:07;51.10;;;25.30;;
77524;SDS011;66638;50.050;21.124;2023-02-07T09:17:56;58.20;;;29.30;;
77524;SDS011;66638;50.050;21.124;2023-02-07T09:20:43;41.40;;;21.10;;
77524;SDS011;66638;50.050;21.124;2023-02-07T09:23:29;52.20;;;27.20;;
77524;SDS011;66638;50.050;21.124;2023-02-07T09:26:21;50.40;;;25.60;;
77524;SDS011;66638;50.050;21.124;2023-02-07T09:29:10;50.80;;;25.80;;
77524;SDS011;66638;50.050;21.124;2023-02-07T09:32:00;45.80;;;25.90;;
77524;SDS011;66638;50.050;21.124;2023-02-07T09:34:46;50.70;;;22.50;;
77524;SDS011;66638;50.050;21.124;2023-02-07T09:37:33;49.30;;;25.60;;
77524;SDS011;66638;50.050;21.124;2023-02-07T09:40:23;54.60;;;25.40;;
77524;SDS011;66638;50.050;21.124;2023-02-07T09:46:29;49.80;;;24.80;;
77524;SDS011;66638;50.050;21.124;2023-02-07T09:49:24;45.10;;;24.20;;
77524;SDS011;66638;50.050;21.124;2023-02-07T09:55:45;50.10;;;24.80;;
77524;SDS011;66638;50.050;21.124;2023-02-07T10:01:47;49.70;;;25.20;;
77524;SDS011;66638;50.050;21.124;2023-02-07T10:04:36;68.80;;;32.10;;
77524;SDS011;66638;50.050;21.124;2023-02-07T10:07:24;49.10;;;25.20;;
77524;SDS011;66638;50.050;21.124;2023-02-07T10:10:18;46.20;;;25.20;;
77524;SDS011;66638;50.050;21.124;2023-02-07T10:13:34;67.80;;;27.60;;
77524;SDS011;66638;50.050;21.124;2023-02-07T10:20:02;54.40;;;28.00;;
77524;SDS011;66638;50.050;21.124;2023-02-07T10:28:58;66.10;;;30.70;;
77524;SDS011;66638;50.050;21.124;2023-02-07T10:31:54;60.20;;;29.30;;
77524;SDS011;66638;50.050;21.124;2023-02-07T10:34:48;49.30;;;24.60;;
77524;SDS011;66638;50.050;21.124;2023-02-07T10:37:37;47.10;;;23.40;;
77524;SDS011;66638;50.050;21.124;2023-02-07T10:40:49;56.30;;;27.40;;
77524;SDS011;66638;50.050;21.124;2023-02-07T10:43:36;52.90;;;23.80;;
77524;SDS011;66638;50.050;21.124;2023-02-07T10:46:23;57.60;;;26.60;;
77524;SDS011;66638;50.050;21.124;2023-02-07T10:49:20;53.90;;;26.80;;
77524;SDS011;66638;50.050;21.124;2023-02-07T10:52:14;56.50;;;27.00;;
77524;SDS011;66638;50.050;21.124;2023-02-07T10:55:16;50.90;;;27.00;;
77524;SDS011;66638;50.050;21.124;2023-02-07T10:58:04;59.50;;;29.20;;
77524;SDS011;66638;50.050;21.124;2023-02-07T11:00:51;54.40;;;26.30;;
77524;SDS011;66638;50.050;21.124;2023-02-07T11:03:37;44.60;;;25.10;;
77524;SDS011;66638;50.050;21.124;2023-02-07T11:06:28;53.70;;;27.30;;
77524;SDS011;66638;50.050;21.124;2023-02-07T11:09:23;59.90;;;29.30;;
77524;SDS011;66638;50.050;21.124;2023-02-07T11:12:13;54.10;;;27.60;;
77524;SDS011;66638;50.050;21.124;2023-02-07T11:15:23;58.40;;;31.80;;
77524;SDS011;66638;50.050;21.124;2023-02-07T11:18:25;60.30;;;31.10;;
77524;SDS011;66638;50.050;21.124;2023-02-07T11:24:13;56.20;;;29.90;;
77524;SDS011;66638;50.050;21.124;2023-02-07T11:27:05;59.70;;;28.00;;
77524;SDS011;66638;50.050;21.124;2023-02-07T11:32:53;54.60;;;29.20;;
77524;SDS011;66638;50.050;21.124;2023-02-07T11:38:49;60.70;;;30.30;;
77524;SDS011;66638;50.050;21.124;2023-02-07T11:41:37;62.70;;;32.00;;
77524;SDS011;66638;50.050;21.124;2023-02-07T11:44:24;52.70;;;28.20;;
77524;SDS011;66638;50.050;21.124;2023-02-07T11:47:14;60.90;;;30.50;;
77524;SDS011;66638;50.050;21.124;2023-02-07T11:50:03;63.90;;;33.30;;
77524;SDS011;66638;50.050;21.124;2023-02-07T11:52:54;60.30;;;29.10;;
77524;SDS011;66638;50.050;21.124;2023-02-07T11:55:43;72.60;;;33.80;;
77524;SDS011;66638;50.050;21.124;2023-02-07T11:58:32;73.70;;;35.00;;
77524;SDS011;66638;50.050;21.124;2023-02-07T12:01:23;77.80;;;41.60;;
77524;SDS011;66638;50.050;21.124;2023-02-07T12:04:16;69.70;;;36.60;;
77524;SDS011;66638;50.050;21.124;2023-02-07T12:10:18;55.00;;;28.70;;
77524;SDS011;66638;50.050;21.124;2023-02-07T12:13:18;52.60;;;27.80;;
77524;SDS011;66638;50.050;21.124;2023-02-07T12:19:11;58.40;;;30.30;;
77524;SDS011;66638;50.050;21.124;2023-02-07T12:22:10;57.00;;;27.90;;
77524;SDS011;66638;50.050;21.124;2023-02-07T12:25:03;64.60;;;31.20;;
77524;SDS011;66638;50.050;21.124;2023-02-07T12:27:54;57.40;;;29.40;;
77524;SDS011;66638;50.050;21.124;2023-02-07T12:30:47;65.40;;;32.50;;
77524;SDS011;66638;50.050;21.124;2023-02-07T12:33:36;65.60;;;34.20;;
77524;SDS011;66638;50.050;21.124;2023-02-07T12:36:42;70.10;;;33.50;;
77524;SDS011;66638;50.050;21.124;2023-02-07T12:40:17;60.70;;;32.70;;
77524;SDS011;66638;50.050;21.124;2023-02-07T12:42:56;57.40;;;31.50;;
77524;SDS011;66638;50.050;21.124;2023-02-07T12:54:36;53.50;;;26.50;;
77524;SDS011;66638;50.050;21.124;2023-02-07T12:57:35;59.70;;;31.70;;
77524;SDS011;66638;50.050;21.124;2023-02-07T13:09:42;61.00;;;29.60;;
77524;SDS011;66638;50.050;21.124;2023-02-07T13:12:37;69.80;;;33.70;;
77524;SDS011;66638;50.050;21.124;2023-02-07T13:15:36;62.60;;;33.00;;
77524;SDS011;66638;50.050;21.124;2023-02-07T13:18:50;52.50;;;27.30;;
77524;SDS011;66638;50.050;21.124;2023-02-07T13:22:01;50.70;;;26.10;;
77524;SDS011;66638;50.050;21.124;2023-02-07T13:24:52;54.10;;;28.60;;
77524;SDS011;66638;50.050;21.124;2023-02-07T13:27:41;50.00;;;27.30;;
77524;SDS011;66638;50.050;21.124;2023-02-07T13:30:28;53.40;;;26.90;;
77524;SDS011;66638;50.050;21.124;2023-02-07T13:42:36;60.80;;;31.40;;
77524;SDS011;66638;50.050;21.124;2023-02-07T13:45:35;68.90;;;34.30;;
77524;SDS011;66638;50.050;21.124;2023-02-07T13:48:41;68.90;;;34.40;;
77524;SDS011;66638;50.050;21.124;2023-02-07T14:01:35;69.20;;;34.50;;
77524;SDS011;66638;50.050;21.124;2023-02-07T14:04:21;63.90;;;34.10;;
77524;SDS011;66638;50.050;21.124;2023-02-07T14:07:13;66.00;;;33.40;;
77524;SDS011;66638;50.050;21.124;2023-02-07T14:10:25;76.70;;;36.60;;
77524;SDS011;66638;50.050;21.124;2023-02-07T14:13:29;75.20;;;34.00;;
77524;SDS011;66638;50.050;21.124;2023-02-07T14:16:17;77.20;;;38.20;;
77524;SDS011;66638;50.050;21.124;2023-02-07T14:22:29;71.80;;;36.00;;
77524;SDS011;66638;50.050;21.124;2023-02-07T14:28:28;77.20;;;35.60;;
77524;SDS011;66638;50.050;21.124;2023-02-07T14:31:19;58.80;;;29.30;;
77524;SDS011;66638;50.050;21.124;2023-02-07T14:34:09;61.80;;;32.60;;
77524;SDS011;66638;50.050;21.124;2023-02-07T14:36:58;64.50;;;32.40;;
77524;SDS011;66638;50.050;21.124;2023-02-07T14:39:44;65.90;;;33.00;;
77524;SDS011;66638;50.050;21.124;2023-02-07T14:42:32;72.80;;;33.40;;
77524;SDS011;66638;50.050;21.124;2023-02-07T14:45:18;60.70;;;31.70;;
77524;SDS011;66638;50.050;21.124;2023-02-07T14:48:06;88.50;;;43.90;;
77524;SDS011;66638;50.050;21.124;2023-02-07T15:00:20;65.60;;;31.70;;
77524;SDS011;66638;50.050;21.124;2023-02-07T15:03:17;70.10;;;33.30;;
77524;SDS011;66638;50.050;21.124;2023-02-07T15:06:13;68.20;;;30.80;;
77524;SDS011;66638;50.050;21.124;2023-02-07T15:09:03;60.10;;;30.40;;
77524;SDS011;66638;50.050;21.124;2023-02-07T15:11:59;72.60;;;38.40;;
77524;SDS011;66638;50.050;21.124;2023-02-07T15:14:53;78.10;;;39.80;;
77524;SDS011;66638;50.050;21.124;2023-02-07T15:17:41;79.70;;;39.70;;
77524;SDS011;66638;50.050;21.124;2023-02-07T15:20:29;79.90;;;43.00;;
77524;SDS011;66638;50.050;21.124;2023-02-07T15:23:18;116.70;;;51.30;;
77524;SDS011;66638;50.050;21.124;2023-02-07T15:26:06;123.20;;;57.90;;
77524;SDS011;66638;50.050;21.124;2023-02-07T15:28:58;94.00;;;45.50;;
77524;SDS011;66638;50.050;21.124;2023-02-07T15:31:50;68.00;;;36.80;;
77524;SDS011;66638;50.050;21.124;2023-02-07T15:34:37;73.00;;;36.60;;
77524;SDS011;66638;50.050;21.124;2023-02-07T15:37:23;75.20;;;38.00;;
77524;SDS011;66638;50.050;21.124;2023-02-07T15:40:13;69.50;;;35.60;;
77524;SDS011;66638;50.050;21.124;2023-02-07T15:43:01;69.10;;;33.30;;
77524;SDS011;66638;50.050;21.124;2023-02-07T15:45:56;69.90;;;34.80;;
77524;SDS011;66638;50.050;21.124;2023-02-07T15:48:48;73.00;;;37.10;;
77524;SDS011;66638;50.050;21.124;2023-02-07T15:51:37;65.50;;;34.40;;
77524;SDS011;66638;50.050;21.124;2023-02-07T15:54:25;79.10;;;37.30;;
77524;SDS011;66638;50.050;21.124;2023-02-07T16:00:20;119.30;;;55.50;;
77524;SDS011;66638;50.050;21.124;2023-02-07T16:03:12;65.60;;;34.10;;
77524;SDS011;66638;50.050;21.124;2023-02-07T16:09:05;81.90;;;39.40;;
77524;SDS011;66638;50.050;21.124;2023-02-07T16:12:27;70.00;;;34.60;;
77524;SDS011;66638;50.050;21.124;2023-02-07T16:15:21;74.20;;;33.80;;
77524;SDS011;66638;50.050;21.124;2023-02-07T16:21:21;79.70;;;35.40;;
77524;SDS011;66638;50.050;21.124;2023-02-07T16:24:18;69.10;;;34.10;;
77524;SDS011;66638;50.050;21.124;2023-02-07T16:27:13;70.40;;;33.70;;
77524;SDS011;66638;50.050;21.124;2023-02-07T16:30:03;68.00;;;34.20;;
77524;SDS011;66638;50.050;21.124;2023-02-07T16:32:51;66.50;;;33.70;;
77524;SDS011;66638;50.050;21.124;2023-02-07T16:35:38;112.40;;;51.90;;
77524;SDS011;66638;50.050;21.124;2023-02-07T16:38:24;144.70;;;66.90;;
77524;SDS011;66638;50.050;21.124;2023-02-07T16:44:23;86.50;;;44.20;;
77524;SDS011;66638;50.050;21.124;2023-02-07T16:47:11;84.60;;;43.30;;
77524;SDS011;66638;50.050;21.124;2023-02-07T16:49:59;80.80;;;39.00;;
77524;SDS011;66638;50.050;21.124;2023-02-07T16:52:46;83.40;;;41.60;;
77524;SDS011;66638;50.050;21.124;2023-02-07T16:55:38;82.60;;;39.30;;
77524;SDS011;66638;50.050;21.124;2023-02-07T17:01:14;88.80;;;41.00;;
77524;SDS011;66638;50.050;21.124;2023-02-07T17:04:02;89.90;;;44.00;;
77524;SDS011;66638;50.050;21.124;2023-02-07T17:06:49;90.10;;;42.20;;
77524;SDS011;66638;50.050;21.124;2023-02-07T17:09:34;91.80;;;41.20;;
77524;SDS011;66638;50.050;21.124;2023-02-07T17:12:21;114.70;;;55.40;;
77524;SDS011;66638;50.050;21.124;2023-02-07T17:15:08;122.40;;;61.70;;
77524;SDS011;66638;50.050;21.124;2023-02-07T17:17:56;102.80;;;50.50;;
77524;SDS011;66638;50.050;21.124;2023-02-07T17:20:42;88.60;;;41.90;;
77524;SDS011;66638;50.050;21.124;2023-02-07T17:23:30;109.20;;;46.30;;
77524;SDS011;66638;50.050;21.124;2023-02-07T17:26:21;84.80;;;39.10;;
77524;SDS011;66638;50.050;21.124;2023-02-07T17:29:12;89.30;;;39.30;;
77524;SDS011;66638;50.050;21.124;2023-02-07T17:32:00;89.50;;;41.80;;
77524;SDS011;66638;50.050;21.124;2023-02-07T17:34:46;113.60;;;49.30;;
77524;SDS011;66638;50.050;21.124;2023-02-07T17:37:32;93.60;;;41.10;;
77524;SDS011;66638;50.050;21.124;2023-02-07T17:43:07;82.30;;;38.90;;
77524;SDS011;66638;50.050;21.124;2023-02-07T17:45:55;115.80;;;52.90;;
77524;SDS011;66638;50.050;21.124;2023-02-07T17:48:41;126.40;;;54.80;;
77524;SDS011;66638;50.050;21.124;2023-02-07T17:51:26;127.20;;;58.70;;
77524;SDS011;66638;50.050;21.124;2023-02-07T17:56:59;79.20;;;39.80;;
77524;SDS011;66638;50.050;21.124;2023-02-07T17:59:46;82.70;;;41.40;;
77524;SDS011;66638;50.050;21.124;2023-02-07T18:02:32;85.40;;;40.50;;
77524;SDS011;66638;50.050;21.124;2023-02-07T18:05:21;84.10;;;39.80;;
77524;SDS011;66638;50.050;21.124;2023-02-07T18:08:08;83.50;;;39.00;;
77524;SDS011;66638;50.050;21.124;2023-02-07T18:10:56;73.10;;;34.40;;
77524;SDS011;66638;50.050;21.124;2023-02-07T18:13:47;81.80;;;39.90;;
77524;SDS011;66638;50.050;21.124;2023-02-07T18:16:33;73.50;;;39.40;;
77524;SDS011;66638;50.050;21.124;2023-02-07T18:19:19;94.20;;;46.00;;
77524;SDS011;66638;50.050;21.124;2023-02-07T18:22:04;116.30;;;55.00;;
77524;SDS011;66638;50.050;21.124;2023-02-07T18:24:51;151.90;;;68.90;;
77524;SDS011;66638;50.050;21.124;2023-02-07T18:27:38;87.90;;;46.10;;
77524;SDS011;66638;50.050;21.124;2023-02-07T18:30:26;88.30;;;42.70;;
77524;SDS011;66638;50.050;21.124;2023-02-07T18:33:13;100.70;;;47.60;;
77524;SDS011;66638;50.050;21.124;2023-02-07T18:36:01;86.90;;;46.20;;
77524;SDS011;66638;50.050;21.124;2023-02-07T18:38:49;76.70;;;38.00;;
77524;SDS011;66638;50.050;21.124;2023-02-07T18:41:35;82.50;;;42.30;;
77524;SDS011;66638;50.050;21.124;2023-02-07T18:44:21;89.30;;;44.40;;
77524;SDS011;66638;50.050;21.124;2023-02-07T18:47:07;92.10;;;46.50;;